sensor_id;sensor_type;location;lat;lon;timestamp;pressure;altitude;pressure_sealevel;temperature;humidity
64616;BME280;51027;42.162;24.754;2023-01-30T00:01:28;100141.47;;;3.18;81.74
64616;BME280;51027;42.162;24.754;2023-01-30T00:03:53;100144.09;;;3.17;81.43
64616;BME280;51027;42.162;24.754;2023-01-30T00:06:19;100138.78;;;3.37;80.09
64616;BME280;51027;42.162;24.754;2023-01-30T00:08:45;100148.31;;;3.45;79.96
64616;BME280;51027;42.162;24.754;2023-01-30T00:11:13;100136.13;;;3.55;79.22
64616;BME280;51027;42.162;24.754;2023-01-30T00:13:39;100136.97;;;3.66;77.76
64616;BME280;51027;42.162;24.754;2023-01-30T00:16:06;100124.00;;;3.54;77.64
64616;BME280;51027;42.162;24.754;2023-01-30T00:18:34;100130.16;;;3.38;77.73
64616;BME280;51027;42.162;24.754;2023-01-30T00:21:01;100142.25;;;3.45;77.75
64616;BME280;51027;42.162;24.754;2023-01-30T00:23:29;100146.63;;;3.34;77.98
64616;BME280;51027;42.162;24.754;2023-01-30T00:25:55;100111.13;;;3.11;78.20
64616;BME280;51027;42.162;24.754;2023-01-30T00:28:21;100124.03;;;3.42;77.49
64616;BME280;51027;42.162;24.754;2023-01-30T00:30:51;100135.25;;;3.62;76.75
64616;BME280;51027;42.162;24.754;2023-01-30T00:33:18;100131.88;;;3.39;77.27
64616;BME280;51027;42.162;24.754;2023-01-30T00:35:44;100139.63;;;3.46;77.40
64616;BME280;51027;42.162;24.754;2023-01-30T00:38:10;100135.41;;;3.06;78.53
64616;BME280;51027;42.162;24.754;2023-01-30T00:40:36;100117.16;;;3.27;78.25
64616;BME280;51027;42.162;24.754;2023-01-30T00:43:01;100133.63;;;3.23;77.83
64616;BME280;51027;42.162;24.754;2023-01-30T00:45:46;100137.97;;;3.24;78.00
64616;BME280;51027;42.162;24.754;2023-01-30T00:48:30;100138.84;;;3.25;78.30
64616;BME280;51027;42.162;24.754;2023-01-30T00:50:56;100137.13;;;3.21;78.76
64616;BME280;51027;42.162;24.754;2023-01-30T00:53:22;100143.16;;;3.41;77.91
64616;BME280;51027;42.162;24.754;2023-01-30T00:55:49;100133.59;;;3.41;78.02
64616;BME280;51027;42.162;24.754;2023-01-30T00:58:15;100122.34;;;3.26;78.39
64616;BME280;51027;42.162;24.754;2023-01-30T01:00:41;100131.06;;;3.20;78.87
64616;BME280;51027;42.162;24.754;2023-01-30T01:03:06;100126.75;;;3.10;78.85
64616;BME280;51027;42.162;24.754;2023-01-30T01:05:32;100131.09;;;2.91;79.72
64616;BME280;51027;42.162;24.754;2023-01-30T01:07:57;100131.97;;;3.07;79.17
64616;BME280;51027;42.162;24.754;2023-01-30T01:10:23;100127.59;;;3.13;79.23
64616;BME280;51027;42.162;24.754;2023-01-30T01:12:49;100116.31;;;3.17;78.56
64616;BME280;51027;42.162;24.754;2023-01-30T01:15:16;100125.88;;;3.17;78.50
64616;BME280;51027;42.162;24.754;2023-01-30T01:17:42;100119.75;;;3.23;78.94
64616;BME280;51027;42.162;24.754;2023-01-30T01:20:08;100112.84;;;3.18;78.98
64616;BME280;51027;42.162;24.754;2023-01-30T01:22:34;100119.81;;;3.07;79.08
64616;BME280;51027;42.162;24.754;2023-01-30T01:25:00;100098.16;;;2.66;80.48
64616;BME280;51027;42.162;24.754;2023-01-30T01:27:25;100110.34;;;2.67;81.18
64616;BME280;51027;42.162;24.754;2023-01-30T01:29:51;100116.34;;;3.01;80.72
64616;BME280;51027;42.162;24.754;2023-01-30T01:32:16;100058.25;;;2.93;79.79
64616;BME280;51027;42.162;24.754;2023-01-30T01:34:42;100092.06;;;2.96;79.23
64616;BME280;51027;42.162;24.754;2023-01-30T01:37:07;100105.91;;;3.14;79.55
64616;BME280;51027;42.162;24.754;2023-01-30T01:39:33;100110.22;;;3.20;79.26
64616;BME280;51027;42.162;24.754;2023-01-30T01:42:17;100104.13;;;3.24;78.34
64616;BME280;51027;42.162;24.754;2023-01-30T01:48:21;100108.44;;;3.40;77.58
64616;BME280;51027;42.162;24.754;2023-01-30T01:50:50;100107.53;;;3.46;77.66
64616;BME280;51027;42.162;24.754;2023-01-30T01:53:20;100089.38;;;3.29;77.88
64616;BME280;51027;42.162;24.754;2023-01-30T01:55:51;100110.94;;;3.62;77.11
64616;BME280;51027;42.162;24.754;2023-01-30T01:58:21;100103.13;;;3.63;76.76
64616;BME280;51027;42.162;24.754;2023-01-30T02:00:49;100114.34;;;3.78;76.08
64616;BME280;51027;42.162;24.754;2023-01-30T02:03:19;100108.34;;;3.62;75.90
64616;BME280;51027;42.162;24.754;2023-01-30T02:05:48;100106.72;;;3.39;76.53
64616;BME280;51027;42.162;24.754;2023-01-30T02:08:27;100106.63;;;3.61;76.58
64616;BME280;51027;42.162;24.754;2023-01-30T02:11:24;100105.84;;;3.27;76.82
64616;BME280;51027;42.162;24.754;2023-01-30T02:13:54;100098.06;;;3.24;76.96
64616;BME280;51027;42.162;24.754;2023-01-30T02:16:21;100091.94;;;3.37;76.72
64616;BME280;51027;42.162;24.754;2023-01-30T02:18:46;100091.94;;;3.37;76.06
64616;BME280;51027;42.162;24.754;2023-01-30T02:27:22;100093.63;;;3.55;74.88
64616;BME280;51027;42.162;24.754;2023-01-30T02:35:23;100091.03;;;3.53;73.82
64616;BME280;51027;42.162;24.754;2023-01-30T02:38:08;100085.97;;;3.12;74.40
64616;BME280;51027;42.162;24.754;2023-01-30T02:43:30;100068.63;;;3.06;73.82
64616;BME280;51027;42.162;24.754;2023-01-30T02:51:04;100087.72;;;3.02;75.52
64616;BME280;51027;42.162;24.754;2023-01-30T02:53:32;100069.44;;;3.22;74.38
64616;BME280;51027;42.162;24.754;2023-01-30T02:55:58;100085.97;;;3.12;74.62
64616;BME280;51027;42.162;24.754;2023-01-30T02:58:25;100079.03;;;3.08;75.21
64616;BME280;51027;42.162;24.754;2023-01-30T03:03:56;100079.88;;;3.14;75.21
64616;BME280;51027;42.162;24.754;2023-01-30T03:09:57;100077.28;;;3.17;75.21
64616;BME280;51027;42.162;24.754;2023-01-30T03:12:39;100074.66;;;3.16;75.18
64616;BME280;51027;42.162;24.754;2023-01-30T03:15:33;100073.75;;;3.31;75.02
64616;BME280;51027;42.162;24.754;2023-01-30T03:18:00;100072.88;;;3.35;75.06
64616;BME280;51027;42.162;24.754;2023-01-30T03:20:26;100068.63;;;3.05;75.62
64616;BME280;51027;42.162;24.754;2023-01-30T03:22:53;100067.66;;;3.36;74.97
64616;BME280;51027;42.162;24.754;2023-01-30T03:25:21;100064.19;;;3.36;74.61
64616;BME280;51027;42.162;24.754;2023-01-30T03:27:49;100068.56;;;3.25;74.94
64616;BME280;51027;42.162;24.754;2023-01-30T03:30:16;100065.88;;;3.46;74.34
64616;BME280;51027;42.162;24.754;2023-01-30T03:32:42;100039.84;;;3.43;73.81
64616;BME280;51027;42.162;24.754;2023-01-30T03:35:08;100054.72;;;3.18;74.33
64616;BME280;51027;42.162;24.754;2023-01-30T03:37:33;100062.59;;;2.98;74.79
64616;BME280;51027;42.162;24.754;2023-01-30T03:39:59;100055.59;;;3.17;74.04
64616;BME280;51027;42.162;24.754;2023-01-30T03:42:24;100036.56;;;2.95;73.47
64616;BME280;51027;42.162;24.754;2023-01-30T03:44:50;100062.50;;;3.29;73.30
64616;BME280;51027;42.162;24.754;2023-01-30T03:47:15;100040.94;;;2.82;73.61
64616;BME280;51027;42.162;24.754;2023-01-30T03:49:41;100058.22;;;3.02;73.77
64616;BME280;51027;42.162;24.754;2023-01-30T03:52:06;100033.13;;;2.84;74.02
64616;BME280;51027;42.162;24.754;2023-01-30T03:54:32;100050.41;;;3.06;73.60
64616;BME280;51027;42.162;24.754;2023-01-30T03:56:57;100059.94;;;3.04;73.81
64616;BME280;51027;42.162;24.754;2023-01-30T03:59:22;100031.41;;;2.80;74.15
64616;BME280;51027;42.162;24.754;2023-01-30T04:01:48;100057.31;;;3.13;73.86
64616;BME280;51027;42.162;24.754;2023-01-30T04:04:13;100059.09;;;3.08;73.78
64616;BME280;51027;42.162;24.754;2023-01-30T04:06:38;100027.03;;;2.97;73.55
64616;BME280;51027;42.162;24.754;2023-01-30T04:09:04;100049.53;;;3.12;73.53
64616;BME280;51027;42.162;24.754;2023-01-30T04:11:29;100060.00;;;2.83;73.84
64616;BME280;51027;42.162;24.754;2023-01-30T04:13:55;100047.88;;;2.89;74.01
64616;BME280;51027;42.162;24.754;2023-01-30T04:16:24;100027.94;;;2.79;73.86
64616;BME280;51027;42.162;24.754;2023-01-30T04:18:50;100040.09;;;2.80;73.74
64616;BME280;51027;42.162;24.754;2023-01-30T04:21:15;100046.13;;;2.92;73.00
64616;BME280;51027;42.162;24.754;2023-01-30T04:23:41;100046.16;;;2.66;74.23
64616;BME280;51027;42.162;24.754;2023-01-30T04:26:07;100032.31;;;2.59;74.25
64616;BME280;51027;42.162;24.754;2023-01-30T04:28:33;100051.38;;;2.55;73.50
64616;BME280;51027;42.162;24.754;2023-01-30T04:30:58;100051.38;;;2.61;74.22
64616;BME280;51027;42.162;24.754;2023-01-30T04:33:24;100058.28;;;2.89;73.12
64616;BME280;51027;42.162;24.754;2023-01-30T04:35:56;100053.09;;;2.73;73.61
64616;BME280;51027;42.162;24.754;2023-01-30T04:38:23;100053.94;;;2.85;73.25
64616;BME280;51027;42.162;24.754;2023-01-30T04:40:50;100034.00;;;2.75;73.01
64616;BME280;51027;42.162;24.754;2023-01-30T04:43:16;100053.06;;;2.83;73.54
64616;BME280;51027;42.162;24.754;2023-01-30T04:45:42;100051.28;;;3.07;73.09
64616;BME280;51027;42.162;24.754;2023-01-30T04:48:08;100056.47;;;3.19;72.14
64616;BME280;51027;42.162;24.754;2023-01-30T04:50:33;100036.59;;;2.83;72.60
64616;BME280;51027;42.162;24.754;2023-01-30T04:52:59;100050.53;;;2.53;73.16
64616;BME280;51027;42.162;24.754;2023-01-30T04:55:24;100044.44;;;2.77;73.05
64616;BME280;51027;42.162;24.754;2023-01-30T04:57:49;100048.75;;;2.81;73.14
64616;BME280;51027;42.162;24.754;2023-01-30T05:00:15;100021.91;;;2.54;73.09
64616;BME280;51027;42.162;24.754;2023-01-30T05:02:41;100055.66;;;2.91;73.20
64616;BME280;51027;42.162;24.754;2023-01-30T05:05:06;100046.97;;;3.07;72.64
64616;BME280;51027;42.162;24.754;2023-01-30T05:07:32;100040.91;;;2.93;73.06
64616;BME280;51027;42.162;24.754;2023-01-30T05:09:57;100053.94;;;2.81;73.44
64616;BME280;51027;42.162;24.754;2023-01-30T05:12:23;100046.16;;;2.78;73.41
64616;BME280;51027;42.162;24.754;2023-01-30T05:14:48;99989.00;;;2.44;72.67
64616;BME280;51027;42.162;24.754;2023-01-30T05:17:13;100044.50;;;2.26;73.99
64616;BME280;51027;42.162;24.754;2023-01-30T05:19:39;100017.63;;;2.18;74.33
64616;BME280;51027;42.162;24.754;2023-01-30T05:22:04;100058.31;;;2.33;75.00
64616;BME280;51027;42.162;24.754;2023-01-30T05:24:30;100048.81;;;2.27;74.31
64616;BME280;51027;42.162;24.754;2023-01-30T05:26:55;100055.75;;;2.36;74.50
64616;BME280;51027;42.162;24.754;2023-01-30T05:29:20;100001.16;;;2.04;73.94
64616;BME280;51027;42.162;24.754;2023-01-30T05:31:46;100043.59;;;2.30;74.85
64616;BME280;51027;42.162;24.754;2023-01-30T05:34:12;100041.88;;;2.40;74.59
64616;BME280;51027;42.162;24.754;2023-01-30T05:36:37;100053.13;;;2.48;74.30
64616;BME280;51027;42.162;24.754;2023-01-30T05:39:02;100056.56;;;2.73;73.29
64616;BME280;51027;42.162;24.754;2023-01-30T05:41:28;100062.66;;;2.69;73.29
64616;BME280;51027;42.162;24.754;2023-01-30T05:43:53;100055.75;;;2.36;74.12
64616;BME280;51027;42.162;24.754;2023-01-30T05:46:19;100054.88;;;2.57;73.77
64616;BME280;51027;42.162;24.754;2023-01-30T05:48:45;100037.53;;;2.44;73.67
64616;BME280;51027;42.162;24.754;2023-01-30T05:51:23;100051.41;;;2.50;73.75
64616;BME280;51027;42.162;24.754;2023-01-30T05:53:48;100045.31;;;2.44;74.00
64616;BME280;51027;42.162;24.754;2023-01-30T05:56:14;100054.00;;;2.41;73.77
64616;BME280;51027;42.162;24.754;2023-01-30T05:58:40;100022.81;;;2.14;74.45
64616;BME280;51027;42.162;24.754;2023-01-30T06:01:09;100053.13;;;2.31;74.28
64616;BME280;51027;42.162;24.754;2023-01-30T06:03:35;100053.16;;;2.28;74.26
64616;BME280;51027;42.162;24.754;2023-01-30T06:06:01;100054.84;;;2.58;73.17
64616;BME280;51027;42.162;24.754;2023-01-30T06:08:27;100048.81;;;2.56;73.64
64616;BME280;51027;42.162;24.754;2023-01-30T06:10:53;100048.78;;;2.52;73.38
64616;BME280;51027;42.162;24.754;2023-01-30T06:13:18;100015.88;;;2.20;73.61
64616;BME280;51027;42.162;24.754;2023-01-30T06:15:43;100039.25;;;2.58;73.27
64616;BME280;51027;42.162;24.754;2023-01-30T06:18:09;100054.00;;;2.56;73.12
64616;BME280;51027;42.162;24.754;2023-01-30T06:20:34;100051.38;;;2.69;73.07
64616;BME280;51027;42.162;24.754;2023-01-30T06:23:00;100051.38;;;2.61;72.16
64616;BME280;51027;42.162;24.754;2023-01-30T06:25:25;100067.84;;;2.65;72.42
64616;BME280;51027;42.162;24.754;2023-01-30T06:27:51;100066.97;;;2.87;72.03
64616;BME280;51027;42.162;24.754;2023-01-30T06:30:17;100066.09;;;2.88;71.33
64616;BME280;51027;42.162;24.754;2023-01-30T06:32:42;100064.38;;;2.53;72.16
64616;BME280;51027;42.162;24.754;2023-01-30T06:35:08;100070.44;;;2.72;72.27
64616;BME280;51027;42.162;24.754;2023-01-30T06:37:33;100038.38;;;2.69;72.06
64616;BME280;51027;42.162;24.754;2023-01-30T06:39:59;100072.19;;;2.52;72.38
64616;BME280;51027;42.162;24.754;2023-01-30T06:42:25;100056.56;;;2.63;72.54
64616;BME280;51027;42.162;24.754;2023-01-30T06:44:50;100041.00;;;2.52;72.39
64616;BME280;51027;42.162;24.754;2023-01-30T06:47:15;100066.13;;;2.51;72.60
64616;BME280;51027;42.162;24.754;2023-01-30T06:49:41;100072.19;;;2.67;72.00
64616;BME280;51027;42.162;24.754;2023-01-30T06:52:06;100076.50;;;2.64;71.71
64616;BME280;51027;42.162;24.754;2023-01-30T06:54:32;100073.00;;;2.89;71.61
64616;BME280;51027;42.162;24.754;2023-01-30T06:56:57;100052.22;;;2.75;71.41
64616;BME280;51027;42.162;24.754;2023-01-30T06:59:22;100064.34;;;2.81;71.18
64616;BME280;51027;42.162;24.754;2023-01-30T07:01:48;100059.16;;;2.73;71.74
64616;BME280;51027;42.162;24.754;2023-01-30T07:04:13;100077.25;;;3.21;71.06
64616;BME280;51027;42.162;24.754;2023-01-30T07:06:39;100075.59;;;2.84;71.17
64616;BME280;51027;42.162;24.754;2023-01-30T07:09:04;100077.31;;;2.99;71.40
64616;BME280;51027;42.162;24.754;2023-01-30T07:11:29;100081.69;;;2.79;71.58
64616;BME280;51027;42.162;24.754;2023-01-30T07:13:55;100060.78;;;3.15;71.23
64616;BME280;51027;42.162;24.754;2023-01-30T07:16:21;100073.81;;;3.18;71.19
64616;BME280;51027;42.162;24.754;2023-01-30T07:18:53;100058.22;;;3.08;71.50
64616;BME280;51027;42.162;24.754;2023-01-30T07:21:21;100076.47;;;2.94;71.27
64616;BME280;51027;42.162;24.754;2023-01-30T07:23:47;100047.00;;;2.89;71.80
64616;BME280;51027;42.162;24.754;2023-01-30T07:26:12;100066.03;;;3.05;70.96
64616;BME280;51027;42.162;24.754;2023-01-30T07:28:38;100071.28;;;2.91;71.79
64616;BME280;51027;42.162;24.754;2023-01-30T07:31:03;100054.81;;;2.91;71.99
64616;BME280;51027;42.162;24.754;2023-01-30T07:33:28;100072.13;;;3.01;71.89
64616;BME280;51027;42.162;24.754;2023-01-30T07:35:54;100076.41;;;3.18;75.34
64616;BME280;51027;42.162;24.754;2023-01-30T07:38:20;100057.41;;;2.86;74.88
64616;BME280;51027;42.162;24.754;2023-01-30T07:40:45;100080.81;;;2.86;74.60
64616;BME280;51027;42.162;24.754;2023-01-30T07:43:12;100070.41;;;2.91;74.75
64616;BME280;51027;42.162;24.754;2023-01-30T07:45:45;100077.31;;;2.96;75.02
64616;BME280;51027;42.162;24.754;2023-01-30T07:48:14;100071.22;;;3.03;74.72
64616;BME280;51027;42.162;24.754;2023-01-30T07:50:40;100055.59;;;3.17;73.85
64616;BME280;51027;42.162;24.754;2023-01-30T07:53:08;100076.38;;;3.31;73.49
64616;BME280;51027;42.162;24.754;2023-01-30T07:55:34;100070.34;;;3.06;74.08
64616;BME280;51027;42.162;24.754;2023-01-30T07:58:00;100052.19;;;2.84;74.64
64616;BME280;51027;42.162;24.754;2023-01-30T08:00:26;100074.59;;;3.40;73.57
64616;BME280;51027;42.162;24.754;2023-01-30T08:02:51;100071.25;;;3.08;73.96
64616;BME280;51027;42.162;24.754;2023-01-30T08:05:17;100066.06;;;2.93;74.33
64616;BME280;51027;42.162;24.754;2023-01-30T08:07:43;100066.00;;;3.15;73.55
64616;BME280;51027;42.162;24.754;2023-01-30T08:10:09;100046.09;;;3.01;74.12
64616;BME280;51027;42.162;24.754;2023-01-30T08:12:34;100065.91;;;3.37;73.33
64616;BME280;51027;42.162;24.754;2023-01-30T08:15:00;100049.41;;;3.42;72.55
64616;BME280;51027;42.162;24.754;2023-01-30T08:17:25;100063.31;;;3.34;72.25
64616;BME280;51027;42.162;24.754;2023-01-30T08:19:51;100070.25;;;3.39;72.49
64616;BME280;51027;42.162;24.754;2023-01-30T08:22:16;100064.25;;;3.14;72.52
64616;BME280;51027;42.162;24.754;2023-01-30T08:24:42;100059.91;;;3.20;72.72
64616;BME280;51027;42.162;24.754;2023-01-30T08:27:07;100056.44;;;3.16;72.75
64616;BME280;51027;42.162;24.754;2023-01-30T08:29:33;100059.06;;;3.19;72.46
64616;BME280;51027;42.162;24.754;2023-01-30T08:31:59;100046.09;;;2.99;72.47
64616;BME280;51027;42.162;24.754;2023-01-30T08:34:25;100028.69;;;3.13;72.10
64616;BME280;51027;42.162;24.754;2023-01-30T08:36:50;100058.16;;;3.29;71.44
64616;BME280;51027;42.162;24.754;2023-01-30T08:39:16;100041.75;;;3.07;71.56
64616;BME280;51027;42.162;24.754;2023-01-30T08:41:41;100050.34;;;3.26;71.96
64616;BME280;51027;42.162;24.754;2023-01-30T08:44:10;100040.72;;;3.45;71.42
64616;BME280;51027;42.162;24.754;2023-01-30T08:46:37;100027.81;;;3.19;71.40
64616;BME280;51027;42.162;24.754;2023-01-30T08:49:03;100055.53;;;3.34;71.48
64616;BME280;51027;42.162;24.754;2023-01-30T08:51:28;100064.19;;;3.40;71.15
64616;BME280;51027;42.162;24.754;2023-01-30T08:53:54;100059.84;;;3.41;71.37
64616;BME280;51027;42.162;24.754;2023-01-30T08:56:19;100007.00;;;3.19;70.98
64616;BME280;51027;42.162;24.754;2023-01-30T08:58:45;100057.22;;;3.36;71.61
64616;BME280;51027;42.162;24.754;2023-01-30T09:01:11;100051.25;;;3.19;72.36
64616;BME280;51027;42.162;24.754;2023-01-30T09:03:37;100048.53;;;3.43;71.30
64616;BME280;51027;42.162;24.754;2023-01-30T09:06:03;100040.69;;;3.46;71.35
64616;BME280;51027;42.162;24.754;2023-01-30T09:08:28;100023.41;;;3.35;71.24
64616;BME280;51027;42.162;24.754;2023-01-30T09:11:01;100029.47;;;3.38;71.11
64616;BME280;51027;42.162;24.754;2023-01-30T09:13:27;100031.94;;;3.63;70.40
64616;BME280;51027;42.162;24.754;2023-01-30T09:15:53;100030.31;;;3.42;70.81
64616;BME280;51027;42.162;24.754;2023-01-30T09:18:19;100028.53;;;3.53;70.89
64616;BME280;51027;42.162;24.754;2023-01-30T09:20:44;100027.53;;;3.79;70.00
64616;BME280;51027;42.162;24.754;2023-01-30T09:23:10;100021.47;;;3.73;69.65
64616;BME280;51027;42.162;24.754;2023-01-30T09:25:35;100018.84;;;3.75;70.47
64616;BME280;51027;42.162;24.754;2023-01-30T09:28:01;100014.47;;;3.82;70.12
64616;BME280;51027;42.162;24.754;2023-01-30T09:30:26;100012.03;;;3.54;70.85
64616;BME280;51027;42.162;24.754;2023-01-30T09:32:51;99940.91;;;3.49;70.00
64616;BME280;51027;42.162;24.754;2023-01-30T09:35:17;99997.22;;;3.62;70.20
64616;BME280;51027;42.162;24.754;2023-01-30T09:37:50;99996.31;;;3.71;70.61
64616;BME280;51027;42.162;24.754;2023-01-30T09:40:18;99993.50;;;3.97;69.79
64616;BME280;51027;42.162;24.754;2023-01-30T09:48:58;99964.28;;;3.54;69.13
64616;BME280;51027;42.162;24.754;2023-01-30T09:51:39;99977.88;;;3.95;69.46
64616;BME280;51027;42.162;24.754;2023-01-30T09:54:28;99974.97;;;4.33;67.65
64616;BME280;51027;42.162;24.754;2023-01-30T09:57:13;99963.88;;;4.07;68.35
64616;BME280;51027;42.162;24.754;2023-01-30T10:00:04;99961.31;;;4.04;69.31
64616;BME280;51027;42.162;24.754;2023-01-30T10:02:38;99952.38;;;3.17;72.21
64616;BME280;51027;42.162;24.754;2023-01-30T10:05:05;99942.88;;;3.07;72.24
64616;BME280;51027;42.162;24.754;2023-01-30T10:10:47;99940.97;;;3.40;72.62
64616;BME280;51027;42.162;24.754;2023-01-30T10:21:29;99920.47;;;4.04;69.48
64616;BME280;51027;42.162;24.754;2023-01-30T10:26:27;99900.19;;;3.34;70.94
64616;BME280;51027;42.162;24.754;2023-01-30T10:29:14;99905.22;;;3.62;70.47
64616;BME280;51027;42.162;24.754;2023-01-30T10:31:48;99891.25;;;3.70;70.56
64616;BME280;51027;42.162;24.754;2023-01-30T10:34:18;99887.97;;;3.45;70.85
64616;BME280;51027;42.162;24.754;2023-01-30T10:36:53;99888.59;;;3.76;69.96
64616;BME280;51027;42.162;24.754;2023-01-30T10:42:14;99873.81;;;3.80;70.11
64616;BME280;51027;42.162;24.754;2023-01-30T10:44:44;99862.53;;;3.76;70.50
64616;BME280;51027;42.162;24.754;2023-01-30T10:50:18;99853.47;;;4.16;68.93
64616;BME280;51027;42.162;24.754;2023-01-30T10:58:07;99839.84;;;3.91;69.04
64616;BME280;51027;42.162;24.754;2023-01-30T11:06:05;99791.72;;;4.22;67.31
64616;BME280;51027;42.162;24.754;2023-01-30T11:08:33;99821.66;;;3.85;69.41
64616;BME280;51027;42.162;24.754;2023-01-30T11:11:00;99806.44;;;4.26;68.45
64616;BME280;51027;42.162;24.754;2023-01-30T11:13:32;99772.75;;;4.11;68.38
64616;BME280;51027;42.162;24.754;2023-01-30T11:16:03;99789.16;;;4.18;68.38
64616;BME280;51027;42.162;24.754;2023-01-30T11:18:30;99782.75;;;4.45;67.26
64616;BME280;51027;42.162;24.754;2023-01-30T11:21:03;99788.63;;;4.59;66.76
64616;BME280;51027;42.162;24.754;2023-01-30T11:23:34;99778.50;;;4.36;67.72
64616;BME280;51027;42.162;24.754;2023-01-30T11:26:01;99762.38;;;4.73;67.14
64616;BME280;51027;42.162;24.754;2023-01-30T11:28:34;99768.66;;;4.56;67.28
64616;BME280;51027;42.162;24.754;2023-01-30T11:31:00;99759.66;;;4.80;66.51
64616;BME280;51027;42.162;24.754;2023-01-30T11:33:34;99759.31;;;4.43;66.63
64616;BME280;51027;42.162;24.754;2023-01-30T11:36:05;99744.94;;;4.12;68.08
64616;BME280;51027;42.162;24.754;2023-01-30T11:38:35;99743.28;;;4.03;68.21
64616;BME280;51027;42.162;24.754;2023-01-30T11:41:20;99740.59;;;4.12;68.92
64616;BME280;51027;42.162;24.754;2023-01-30T11:43:46;99738.63;;;4.28;61.19
64616;BME280;51027;42.162;24.754;2023-01-30T11:46:16;99748.16;;;4.32;60.20
64616;BME280;51027;42.162;24.754;2023-01-30T11:51:11;99706.75;;;4.08;59.26
64616;BME280;51027;42.162;24.754;2023-01-30T11:53:40;99725.50;;;4.36;59.40
64616;BME280;51027;42.162;24.754;2023-01-30T11:56:24;99722.88;;;4.37;58.57
64616;BME280;51027;42.162;24.754;2023-01-30T11:58:58;99711.13;;;4.05;59.20
64616;BME280;51027;42.162;24.754;2023-01-30T12:01:29;99695.44;;;4.09;59.38
64616;BME280;51027;42.162;24.754;2023-01-30T12:03:56;99699.78;;;4.11;58.53
64616;BME280;51027;42.162;24.754;2023-01-30T12:06:28;99702.13;;;4.29;58.33
64616;BME280;51027;42.162;24.754;2023-01-30T12:08:55;99703.94;;;4.24;57.43
64616;BME280;51027;42.162;24.754;2023-01-30T12:13:55;99666.59;;;4.22;56.74
64616;BME280;51027;42.162;24.754;2023-01-30T12:16:25;99671.81;;;4.22;56.87
64616;BME280;51027;42.162;24.754;2023-01-30T12:19:00;99686.53;;;4.26;57.15
64616;BME280;51027;42.162;24.754;2023-01-30T12:21:50;99664.31;;;3.98;57.22
64616;BME280;51027;42.162;24.754;2023-01-30T12:29:59;99678.63;;;4.32;57.51
64616;BME280;51027;42.162;24.754;2023-01-30T12:32:30;99662.09;;;4.33;57.42
64616;BME280;51027;42.162;24.754;2023-01-30T12:34:56;99664.00;;;4.22;58.46
64616;BME280;51027;42.162;24.754;2023-01-30T12:40:12;99666.34;;;4.41;57.15
64616;BME280;51027;42.162;24.754;2023-01-30T12:56:40;99622.81;;;3.84;57.60
64616;BME280;51027;42.162;24.754;2023-01-30T13:10:02;99625.31;;;3.92;57.59
64616;BME280;51027;42.162;24.754;2023-01-30T13:25:56;99614.88;;;3.93;57.58
64616;BME280;51027;42.162;24.754;2023-01-30T13:28:43;99611.03;;;4.20;57.75
64616;BME280;51027;42.162;24.754;2023-01-30T13:31:13;99611.22;;;4.05;57.88
64616;BME280;51027;42.162;24.754;2023-01-30T13:33:41;99604.06;;;4.21;58.00
64616;BME280;51027;42.162;24.754;2023-01-30T13:36:21;99594.59;;;4.15;57.72
64616;BME280;51027;42.162;24.754;2023-01-30T13:41:21;99602.06;;;3.78;58.47
64616;BME280;51027;42.162;24.754;2023-01-30T13:43:51;99604.34;;;4.01;57.88
64616;BME280;51027;42.162;24.754;2023-01-30T13:46:23;99605.97;;;4.08;57.52
64616;BME280;51027;42.162;24.754;2023-01-30T13:51:30;99581.91;;;3.91;58.40
64616;BME280;51027;42.162;24.754;2023-01-30T13:54:22;99593.97;;;3.98;58.21
64616;BME280;51027;42.162;24.754;2023-01-30T14:02:17;99592.38;;;3.89;59.41
64616;BME280;51027;42.162;24.754;2023-01-30T14:04:45;99587.00;;;3.98;59.08
64616;BME280;51027;42.162;24.754;2023-01-30T14:09:39;99589.03;;;3.80;59.77
64616;BME280;51027;42.162;24.754;2023-01-30T14:12:05;99596.69;;;3.90;60.06
64616;BME280;51027;42.162;24.754;2023-01-30T14:14:34;99586.38;;;3.83;60.49
64616;BME280;51027;42.162;24.754;2023-01-30T14:17:12;99593.84;;;4.05;60.61
64616;BME280;51027;42.162;24.754;2023-01-30T14:19:41;99526.97;;;3.47;60.95
64616;BME280;51027;42.162;24.754;2023-01-30T14:25:31;99587.59;;;4.17;60.85
64616;BME280;51027;42.162;24.754;2023-01-30T14:30:34;99584.22;;;3.49;63.31
64616;BME280;51027;42.162;24.754;2023-01-30T14:38:38;99550.06;;;3.01;65.26
64616;BME280;51027;42.162;24.754;2023-01-30T14:59:50;99528.72;;;2.70;65.98
64616;BME280;51027;42.162;24.754;2023-01-30T15:02:25;99575.41;;;2.81;65.47
64616;BME280;51027;42.162;24.754;2023-01-30T15:13:01;99572.84;;;2.79;67.64
64616;BME280;51027;42.162;24.754;2023-01-30T15:31:32;99565.81;;;2.87;69.41
64616;BME280;51027;42.162;24.754;2023-01-30T15:33:58;99565.00;;;2.81;69.53
64616;BME280;51027;42.162;24.754;2023-01-30T15:36:30;99564.97;;;2.84;69.71
64616;BME280;51027;42.162;24.754;2023-01-30T15:39:05;99574.00;;;2.46;69.98
64616;BME280;51027;42.162;24.754;2023-01-30T15:41:36;99538.22;;;2.73;71.46
64616;BME280;51027;42.162;24.754;2023-01-30T15:44:10;99569.47;;;2.68;70.20
64616;BME280;51027;42.162;24.754;2023-01-30T15:52:02;99567.03;;;2.51;70.09
64616;BME280;51027;42.162;24.754;2023-01-30T15:54:28;99572.22;;;2.51;71.54
64616;BME280;51027;42.162;24.754;2023-01-30T15:56:56;99575.84;;;2.35;70.75
64616;BME280;51027;42.162;24.754;2023-01-30T15:59:48;99578.50;;;2.26;71.15
64616;BME280;51027;42.162;24.754;2023-01-30T16:02:19;99575.69;;;2.50;74.48
64616;BME280;51027;42.162;24.754;2023-01-30T16:04:47;99573.44;;;2.08;73.27
64616;BME280;51027;42.162;24.754;2023-01-30T16:07:22;99569.00;;;2.20;75.10
64616;BME280;51027;42.162;24.754;2023-01-30T16:09:56;99567.44;;;1.99;72.22